< < Back
Terminal Aerodrome Forecast


Current Version              Previous Versions:   1  2  3  4  5  6  7  8  9  

Terminal Aerodrome Forecast

512
FTUS42 KGSP 301139
TAFAND
TAF
KAND 301139Z 3012/0112 07005KT P6SM SCT250
     FM301500 10004KT P6SM SCT050
     FM301800 18005KT P6SM VCTS BKN050CB PROB30 3021/0103 4SM -TSRA
      OVC025CB
     FM010400 VRB02KT P6SM SCT040
     FM011000 00000KT 5SM BR SCT010=

Latest METAR

400
SAUS70 KWBC 301300 RRL
MTRAND
METAR KAND 301256Z AUTO 07006KT 10SM CLR 25/20 A3001 RMK AO2 SLP152
T02500200


USA.gov is the U.S. government's official web portal to all federal, state and local government web resources and services.